Terminal Aerodrome Forecast
Issued by NWS

Home | Current Version | Previous Version | Text Only | Print | Product List | Glossary On
Versions: 1 2 3 4 5 6 7 8 9 10 11 12 13 14 15 16 17 18 19 20 21 22 23 24 25 26 27 28 29 30 31 32 33 34
695
FTUS41 KBOX 121737
TAFBAF
TAF
KBAF 121737Z 1218/1318 20007KT P6SM BKN150
     FM130300 VRB03KT P6SM BKN040
     FM131200 30009KT P6SM BKN040
     FM131400 31015G28KT P6SM BKN080=

USA.gov is the U.S. government's official web portal to all federal, state and local government web resources and services.